sensor_id;sensor_type;location;lat;lon;timestamp;temperature;humidity
58513;DHT22;44302;47.914;10.642;2022-12-29T07:59:52;8.20;94.20
58513;DHT22;44302;47.914;10.642;2022-12-29T08:02:18;8.30;94.40
58513;DHT22;44302;47.914;10.642;2022-12-29T08:04:43;8.40;94.30
58513;DHT22;44302;47.914;10.642;2022-12-29T08:07:09;8.40;94.30
58513;DHT22;44302;47.914;10.642;2022-12-29T08:09:35;8.40;94.40
58513;DHT22;44302;47.914;10.642;2022-12-29T08:12:00;8.50;94.20
58513;DHT22;44302;47.914;10.642;2022-12-29T08:14:26;8.50;94.30
58513;DHT22;44302;47.914;10.642;2022-12-29T08:16:52;8.50;94.40
58513;DHT22;44302;47.914;10.642;2022-12-29T08:19:17;8.50;94.30
58513;DHT22;44302;47.914;10.642;2022-12-29T08:21:43;8.60;94.20
58513;DHT22;44302;47.914;10.642;2022-12-29T08:24:09;8.60;93.80
58513;DHT22;44302;47.914;10.642;2022-12-29T08:26:35;8.70;93.90
58513;DHT22;44302;47.914;10.642;2022-12-29T08:29:00;8.90;93.40
58513;DHT22;44302;47.914;10.642;2022-12-29T08:31:26;9.20;93.40
58513;DHT22;44302;47.914;10.642;2022-12-29T08:33:52;9.50;92.10
58513;DHT22;44302;47.914;10.642;2022-12-29T08:36:17;9.80;92.20
58513;DHT22;44302;47.914;10.642;2022-12-29T08:38:43;10.00;90.50
58513;DHT22;44302;47.914;10.642;2022-12-29T08:41:09;9.80;91.00
58513;DHT22;44302;47.914;10.642;2022-12-29T08:43:34;9.70;91.00
58513;DHT22;44302;47.914;10.642;2022-12-29T08:46:00;9.50;90.90
58513;DHT22;44302;47.914;10.642;2022-12-29T08:48:26;9.40;91.00
58513;DHT22;44302;47.914;10.642;2022-12-29T08:50:52;8.90;91.30
58513;DHT22;44302;47.914;10.642;2022-12-29T08:53:19;8.10;92.00
58513;DHT22;44302;47.914;10.642;2022-12-29T08:55:45;7.70;93.10
58513;DHT22;44302;47.914;10.642;2022-12-29T08:58:12;7.80;93.10
58513;DHT22;44302;47.914;10.642;2022-12-29T09:00:41;8.00;92.70
58513;DHT22;44302;47.914;10.642;2022-12-29T09:03:06;8.10;92.40
58513;DHT22;44302;47.914;10.642;2022-12-29T09:05:32;8.00;92.90
58513;DHT22;44302;47.914;10.642;2022-12-29T09:07:58;7.80;92.80
58513;DHT22;44302;47.914;10.642;2022-12-29T09:10:23;7.50;93.30
58513;DHT22;44302;47.914;10.642;2022-12-29T09:12:49;7.20;94.00
58513;DHT22;44302;47.914;10.642;2022-12-29T09:15:15;7.10;94.70
58513;DHT22;44302;47.914;10.642;2022-12-29T09:17:41;6.90;94.80
58513;DHT22;44302;47.914;10.642;2022-12-29T09:20:16;6.80;94.90
58513;DHT22;44302;47.914;10.642;2022-12-29T09:22:43;6.80;95.10
58513;DHT22;44302;47.914;10.642;2022-12-29T09:25:10;6.80;95.70
58513;DHT22;44302;47.914;10.642;2022-12-29T09:27:36;6.80;95.50
58513;DHT22;44302;47.914;10.642;2022-12-29T09:30:05;6.80;95.70
58513;DHT22;44302;47.914;10.642;2022-12-29T09:32:32;6.80;95.90
58513;DHT22;44302;47.914;10.642;2022-12-29T09:34:57;6.90;96.10
58513;DHT22;44302;47.914;10.642;2022-12-29T09:37:23;6.80;96.20
58513;DHT22;44302;47.914;10.642;2022-12-29T09:39:49;6.90;96.20
58513;DHT22;44302;47.914;10.642;2022-12-29T09:42:19;6.90;96.60
58513;DHT22;44302;47.914;10.642;2022-12-29T09:45:10;7.00;96.80
58513;DHT22;44302;47.914;10.642;2022-12-29T09:47:34;7.00;96.70
58513;DHT22;44302;47.914;10.642;2022-12-29T09:50:05;7.10;96.80
58513;DHT22;44302;47.914;10.642;2022-12-29T09:52:47;7.30;96.90
58513;DHT22;44302;47.914;10.642;2022-12-29T09:55:17;7.40;96.60
58513;DHT22;44302;47.914;10.642;2022-12-29T09:57:59;7.50;96.30
58513;DHT22;44302;47.914;10.642;2022-12-29T10:00:53;7.60;96.70
58513;DHT22;44302;47.914;10.642;2022-12-29T10:03:21;7.70;96.40
58513;DHT22;44302;47.914;10.642;2022-12-29T10:16:51;8.10;95.30
58513;DHT22;44302;47.914;10.642;2022-12-29T10:22:14;8.40;95.10
58513;DHT22;44302;47.914;10.642;2022-12-29T10:24:45;8.60;94.70
58513;DHT22;44302;47.914;10.642;2022-12-29T10:27:13;8.70;93.90
58513;DHT22;44302;47.914;10.642;2022-12-29T10:29:50;8.70;94.10
58513;DHT22;44302;47.914;10.642;2022-12-29T10:34:50;8.60;93.80
58513;DHT22;44302;47.914;10.642;2022-12-29T10:40:38;8.80;94.30
58513;DHT22;44302;47.914;10.642;2022-12-29T10:46:04;8.70;95.00
58513;DHT22;44302;47.914;10.642;2022-12-29T10:48:32;8.60;94.10
58513;DHT22;44302;47.914;10.642;2022-12-29T10:51:01;8.50;94.90
58513;DHT22;44302;47.914;10.642;2022-12-29T10:53:45;8.40;95.00
58513;DHT22;44302;47.914;10.642;2022-12-29T10:56:35;8.30;95.40
58513;DHT22;44302;47.914;10.642;2022-12-29T10:59:23;8.30;95.40
58513;DHT22;44302;47.914;10.642;2022-12-29T11:07:24;8.60;95.30
58513;DHT22;44302;47.914;10.642;2022-12-29T11:09:52;9.00;95.00
58513;DHT22;44302;47.914;10.642;2022-12-29T11:14:46;9.90;93.70
58513;DHT22;44302;47.914;10.642;2022-12-29T11:17:16;10.20;92.20
58513;DHT22;44302;47.914;10.642;2022-12-29T11:19:43;10.40;92.20
58513;DHT22;44302;47.914;10.642;2022-12-29T11:22:25;10.80;91.50
58513;DHT22;44302;47.914;10.642;2022-12-29T11:24:54;11.10;90.30
58513;DHT22;44302;47.914;10.642;2022-12-29T11:27:25;11.40;90.30
58513;DHT22;44302;47.914;10.642;2022-12-29T11:29:53;11.80;91.30
58513;DHT22;44302;47.914;10.642;2022-12-29T11:34:45;13.20;88.90
58513;DHT22;44302;47.914;10.642;2022-12-29T11:37:20;13.50;86.30
58513;DHT22;44302;47.914;10.642;2022-12-29T11:42:46;13.50;89.70
58513;DHT22;44302;47.914;10.642;2022-12-29T11:45:19;13.90;88.70
58513;DHT22;44302;47.914;10.642;2022-12-29T11:47:54;13.90;86.30
58513;DHT22;44302;47.914;10.642;2022-12-29T11:50:26;13.80;88.50
58513;DHT22;44302;47.914;10.642;2022-12-29T11:53:05;14.00;89.10
58513;DHT22;44302;47.914;10.642;2022-12-29T11:55:33;14.30;88.60
58513;DHT22;44302;47.914;10.642;2022-12-29T11:58:02;14.60;88.30
58513;DHT22;44302;47.914;10.642;2022-12-29T12:00:31;14.60;88.40
58513;DHT22;44302;47.914;10.642;2022-12-29T12:05:52;14.00;89.80
58513;DHT22;44302;47.914;10.642;2022-12-29T12:11:22;13.50;90.80
58513;DHT22;44302;47.914;10.642;2022-12-29T12:14:17;13.10;91.00
58513;DHT22;44302;47.914;10.642;2022-12-29T12:19:28;12.80;91.80
58513;DHT22;44302;47.914;10.642;2022-12-29T12:25:23;12.70;91.80
58513;DHT22;44302;47.914;10.642;2022-12-29T12:27:57;12.70;91.50
58513;DHT22;44302;47.914;10.642;2022-12-29T12:30:28;12.60;91.50
58513;DHT22;44302;47.914;10.642;2022-12-29T12:33:22;12.70;92.00
58513;DHT22;44302;47.914;10.642;2022-12-29T12:42:06;13.20;91.00
58513;DHT22;44302;47.914;10.642;2022-12-29T12:47:40;13.20;91.40
58513;DHT22;44302;47.914;10.642;2022-12-29T12:50:43;13.10;91.20
58513;DHT22;44302;47.914;10.642;2022-12-29T12:53:40;12.80;91.40
58513;DHT22;44302;47.914;10.642;2022-12-29T12:56:16;12.60;91.60
58513;DHT22;44302;47.914;10.642;2022-12-29T13:01:35;12.60;91.10
58513;DHT22;44302;47.914;10.642;2022-12-29T13:06:54;12.60;90.80
58513;DHT22;44302;47.914;10.642;2022-12-29T13:11:56;12.70;91.10
58513;DHT22;44302;47.914;10.642;2022-12-29T13:14:48;12.70;91.60
58513;DHT22;44302;47.914;10.642;2022-12-29T13:17:27;12.60;90.90
58513;DHT22;44302;47.914;10.642;2022-12-29T13:22:54;12.40;90.80
58513;DHT22;44302;47.914;10.642;2022-12-29T13:33:47;12.30;90.90
58513;DHT22;44302;47.914;10.642;2022-12-29T13:36:24;12.30;91.60
58513;DHT22;44302;47.914;10.642;2022-12-29T13:39:01;12.20;91.10
58513;DHT22;44302;47.914;10.642;2022-12-29T13:41:38;12.10;91.20
58513;DHT22;44302;47.914;10.642;2022-12-29T13:44:05;12.00;91.30
58513;DHT22;44302;47.914;10.642;2022-12-29T13:46:39;11.90;91.30
58513;DHT22;44302;47.914;10.642;2022-12-29T13:49:24;11.90;91.90
58513;DHT22;44302;47.914;10.642;2022-12-29T13:54:39;11.70;92.20
58513;DHT22;44302;47.914;10.642;2022-12-29T13:57:35;11.60;92.20
58513;DHT22;44302;47.914;10.642;2022-12-29T14:05:45;11.40;92.80
58513;DHT22;44302;47.914;10.642;2022-12-29T14:08:17;11.40;92.70
58513;DHT22;44302;47.914;10.642;2022-12-29T14:10:50;11.30;93.10
58513;DHT22;44302;47.914;10.642;2022-12-29T14:13:23;11.30;93.30
58513;DHT22;44302;47.914;10.642;2022-12-29T14:15:55;11.20;93.40
58513;DHT22;44302;47.914;10.642;2022-12-29T14:18:29;11.20;93.70
58513;DHT22;44302;47.914;10.642;2022-12-29T14:21:23;11.10;93.90
58513;DHT22;44302;47.914;10.642;2022-12-29T14:23:53;11.00;94.30
58513;DHT22;44302;47.914;10.642;2022-12-29T14:28:54;10.90;95.10
58513;DHT22;44302;47.914;10.642;2022-12-29T14:36:38;10.80;96.20
58513;DHT22;44302;47.914;10.642;2022-12-29T14:42:14;10.70;96.60
58513;DHT22;44302;47.914;10.642;2022-12-29T14:47:43;10.70;97.00
58513;DHT22;44302;47.914;10.642;2022-12-29T14:52:57;10.60;97.60
58513;DHT22;44302;47.914;10.642;2022-12-29T15:00:44;10.50;98.40
58513;DHT22;44302;47.914;10.642;2022-12-29T15:03:24;10.50;98.60
58513;DHT22;44302;47.914;10.642;2022-12-29T15:05:56;10.40;98.90
58513;DHT22;44302;47.914;10.642;2022-12-29T15:08:26;10.40;99.20
58513;DHT22;44302;47.914;10.642;2022-12-29T15:10:57;10.30;99.20
58513;DHT22;44302;47.914;10.642;2022-12-29T15:13:32;10.30;99.60
58513;DHT22;44302;47.914;10.642;2022-12-29T15:15:58;10.20;99.70
58513;DHT22;44302;47.914;10.642;2022-12-29T15:18:29;10.20;99.90
58513;DHT22;44302;47.914;10.642;2022-12-29T15:20:58;10.20;99.90
58513;DHT22;44302;47.914;10.642;2022-12-29T15:23:25;10.10;99.90
58513;DHT22;44302;47.914;10.642;2022-12-29T15:25:56;10.10;99.90
58513;DHT22;44302;47.914;10.642;2022-12-29T15:28:23;10.10;99.90
58513;DHT22;44302;47.914;10.642;2022-12-29T15:31:01;10.10;99.90
58513;DHT22;44302;47.914;10.642;2022-12-29T15:33:28;10.10;99.90
58513;DHT22;44302;47.914;10.642;2022-12-29T15:35:55;10.00;99.90
58513;DHT22;44302;47.914;10.642;2022-12-29T15:38:25;10.00;99.90
58513;DHT22;44302;47.914;10.642;2022-12-29T15:40:58;10.00;99.90
58513;DHT22;44302;47.914;10.642;2022-12-29T15:46:01;9.90;99.90
58513;DHT22;44302;47.914;10.642;2022-12-29T15:48:27;9.90;99.90
58513;DHT22;44302;47.914;10.642;2022-12-29T15:50:53;9.90;99.90
58513;DHT22;44302;47.914;10.642;2022-12-29T15:53:28;9.80;99.90
58513;DHT22;44302;47.914;10.642;2022-12-29T15:56:09;9.80;99.90
58513;DHT22;44302;47.914;10.642;2022-12-29T15:58:47;9.70;99.90
58513;DHT22;44302;47.914;10.642;2022-12-29T16:01:37;9.70;99.90
58513;DHT22;44302;47.914;10.642;2022-12-29T16:04:08;9.70;99.90
58513;DHT22;44302;47.914;10.642;2022-12-29T16:06:36;9.60;99.90
58513;DHT22;44302;47.914;10.642;2022-12-29T16:13:57;9.50;99.90
58513;DHT22;44302;47.914;10.642;2022-12-29T16:16:27;9.50;99.90
58513;DHT22;44302;47.914;10.642;2022-12-29T16:18:54;9.40;99.90
58513;DHT22;44302;47.914;10.642;2022-12-29T16:21:29;9.40;99.90
58513;DHT22;44302;47.914;10.642;2022-12-29T16:24:02;9.30;99.90
58513;DHT22;44302;47.914;10.642;2022-12-29T16:26:29;9.20;99.90
58513;DHT22;44302;47.914;10.642;2022-12-29T16:28:57;9.10;99.90
58513;DHT22;44302;47.914;10.642;2022-12-29T16:31:54;9.00;99.90
58513;DHT22;44302;47.914;10.642;2022-12-29T16:39:47;8.70;99.90
58513;DHT22;44302;47.914;10.642;2022-12-29T16:42:35;8.60;99.90
58513;DHT22;44302;47.914;10.642;2022-12-29T16:50:42;8.40;99.90
58513;DHT22;44302;47.914;10.642;2022-12-29T16:53:26;8.50;99.90
